Saint Joseph, Tennessee
Current Conditions -  °F | °C
As of 2:53 PM on Sunday 21 Dec 2014 (Local Time) from KMSL Reporting Station
Overcast Overcast  
Wind Chill: 53°   Ceiling: 3100
Heat Index: 53°   Visibility: 10mi
Dew Point: 40°   Wind: 3mph
Humidity: 61%   Direction: 90°E
Pressure: 30.07"   Gusts: NA
Location:  35.04°N, 87.51°W
Report Text: KMSL 212053Z AUTO 09003KT 10SM OVC031 12/04 A3007 RMK AO2 SLP184 6//// T01170044 56029 $
Loading
Personal Weather Stations






























Interactive Weather Map New forecast layout! Learn more

10-Day Weather Forecast

Advertisements
Track Severe Weather on mobile